Time;durP1;ratioP1;P1;durP2;ratioP2;P2;SDS_P1;SDS_P2;PMS_P1;PMS_P2;Temp;Humidity;BMP_temperature;BMP_pressure;BME280_temperature;BME280_humidity;BME280_pressure;Samples;Min_cycle;Max_cycle;Signal;HPM_P1;HPM_P2
2023/03/23 06:53:04;;;;;;;3.13;1.90;;;;;;;;;;10506480;28;20491;-81
2023/03/23 06:58:06;;;;;;;3.97;2.17;;;;;;;;;;10508301;28;20088;-82
2023/03/23 07:03:08;;;;;;;;;;;;;;;;;;10508680;28;20394;-82
2023/03/23 07:08:09;;;;;;;3.13;1.90;;;;;;;;;;10503506;28;19911;-80
2023/03/23 07:13:10;;;;;;;3.63;1.92;;;;;;;;;;10503579;28;20550;-82
2023/03/23 07:18:11;;;;;;;;;;;;;;;;;;10504563;28;20033;-80
2023/03/23 07:23:12;;;;;;;4.15;1.50;;;;;;;;;;10505083;28;20359;-81
2023/03/23 07:28:13;;;;;;;;;;;;;;;;;;10504528;28;20032;-80
2023/03/23 07:33:14;;;;;;;3.00;1.60;;;;;;;;;;10502392;28;19911;-80
2023/03/23 07:38:15;;;;;;;;;;;;;;;;;;10504717;28;20155;-80
2023/03/23 07:43:16;;;;;;;3.55;1.58;;;;;;;;;;10505369;28;19904;-80
2023/03/23 07:48:17;;;;;;;;;;;;;;;;;;10504224;28;20163;-80
2023/03/23 07:53:18;;;;;;;4.20;2.03;;;;;;;;;;10507289;28;19908;-79
2023/03/23 07:58:20;;;;;;;;;;;;;;;;;;10508551;28;20067;-79
2023/03/23 08:03:21;;;;;;;2.60;1.30;;;;;;;;;;10477134;28;19908;-77
2023/03/23 08:08:23;;;;;;;;;;;;;;;;;;10476071;28;20017;-78
2023/03/23 08:13:24;;;;;;;2.55;1.50;;;;;;;;;;10468096;28;19913;-79
2023/03/23 08:18:26;;;;;;;1.92;1.38;;;;;;;;;;10468032;28;20483;-79
2023/03/23 08:23:27;;;;;;;5.25;2.78;;;;;;;;;;10473163;28;20017;-79
2023/03/23 08:28:28;;;;;;;3.25;1.52;;;;;;;;;;10473561;28;20514;-79
2023/03/23 08:33:29;;;;;;;;;;;;;;;;;;10469932;28;20033;-80
2023/03/23 08:38:30;;;;;;;2.63;1.50;;;;;;;;;;10468502;28;19915;-80
2023/03/23 08:43:32;;;;;;;3.95;1.70;;;;;;;;;;10469785;28;20025;-79
2023/03/23 08:48:35;;;;;;;2.60;1.00;;;;;;;;;;10469729;28;20032;-79
2023/03/23 08:53:36;;;;;;;3.85;1.30;;;;;;;;;;10473903;28;20029;-79
2023/03/23 08:58:38;;;;;;;4.95;1.70;;;;;;;;;;10475226;28;20075;-80
2023/03/23 09:03:40;;;;;;;3.08;1.63;;;;;;;;;;10464078;28;20028;-79
2023/03/23 09:08:41;;;;;;;3.63;1.50;;;;;;;;;;10463816;28;20037;-80
2023/03/23 09:13:42;;;;;;;;;;;;;;;;;;10465146;28;20037;-79
2023/03/23 09:18:43;;;;;;;2.97;1.25;;;;;;;;;;10463391;28;19930;-80
2023/03/23 09:23:45;;;;;;;3.55;1.45;;;;;;;;;;10461483;28;20553;-79
2023/03/23 09:28:46;;;;;;;4.32;1.30;;;;;;;;;;10463458;28;20024;-80
2023/03/23 09:33:47;;;;;;;;;;;;;;;;;;10464058;28;20036;-80
2023/03/23 09:38:48;;;;;;;2.78;1.40;;;;;;;;;;10463143;28;19934;-80
2023/03/23 09:43:50;;;;;;;4.95;1.70;;;;;;;;;;10462118;28;20396;-81
2023/03/23 09:48:59;;;;;;;5.95;1.90;;;;;;;;;;10468200;28;20044;-82
2023/03/23 09:54:13;;;;;;;4.53;1.35;;;;;;;;;;10467642;28;20083;-80
2023/03/23 09:59:20;;;;;;;3.40;1.58;;;;;;;;;;10467454;28;20025;-82
2023/03/23 10:04:29;;;;;;;2.80;1.20;;;;;;;;;;10469373;28;20068;-82
2023/03/23 10:09:30;;;;;;;2.22;1.17;;;;;;;;;;10483380;28;20032;-79
2023/03/23 10:14:37;;;;;;;4.25;1.80;;;;;;;;;;10497011;28;20391;-80
2023/03/23 10:19:38;;;;;;;4.45;1.40;;;;;;;;;;10468164;28;20024;-80
2023/03/23 10:24:39;;;;;;;;;;;;;;;;;;10472788;28;20029;-81
2023/03/23 10:29:43;;;;;;;3.85;1.63;;;;;;;;;;10464502;28;19908;-81
2023/03/23 10:34:54;;;;;;;3.28;1.55;;;;;;;;;;10461648;28;20025;-81
2023/03/23 10:39:59;;;;;;;2.60;1.20;;;;;;;;;;10461791;28;20074;-82
2023/03/23 10:45:01;;;;;;;2.92;1.80;;;;;;;;;;10462132;28;20021;-82
2023/03/23 10:50:05;;;;;;;3.42;1.42;;;;;;;;;;10461045;28;20398;-80
2023/03/23 10:55:06;;;;;;;3.45;1.40;;;;;;;;;;10458738;28;20029;-79
2023/03/23 11:00:17;;;;;;;5.28;1.38;;;;;;;;;;10460948;28;20066;-80
2023/03/23 11:05:23;;;;;;;2.67;1.20;;;;;;;;;;10459410;28;20025;-79
2023/03/23 11:10:35;;;;;;;4.13;1.73;;;;;;;;;;10458495;28;20029;-79
2023/03/23 11:15:39;;;;;;;2.72;1.10;;;;;;;;;;10463805;28;20043;-79
2023/03/23 11:20:41;;;;;;;3.03;1.23;;;;;;;;;;10466272;28;20049;-78
2023/03/23 11:25:54;;;;;;;3.03;1.20;;;;;;;;;;10457819;28;20021;-79
2023/03/23 11:30:56;;;;;;;2.42;1.20;;;;;;;;;;10460231;28;20089;-79
2023/03/23 11:35:57;;;;;;;3.45;1.25;;;;;;;;;;10459639;28;20540;-80
2023/03/23 11:40:59;;;;;;;2.95;1.85;;;;;;;;;;10466787;28;20025;-80
2023/03/23 11:46:07;;;;;;;2.40;1.05;;;;;;;;;;10464972;28;20021;-80
2023/03/23 11:51:40;;;;;;;2.38;1.00;;;;;;;;;;10467047;28;20037;-80
2023/03/23 11:56:46;;;;;;;3.83;1.30;;;;;;;;;;10462834;28;20123;-79
2023/03/23 12:01:48;;;;;;;2.78;1.45;;;;;;;;;;10471823;28;20025;-79
2023/03/23 12:07:01;;;;;;;2.28;1.17;;;;;;;;;;10466490;28;20017;-80
2023/03/23 12:12:07;;;;;;;4.88;1.40;;;;;;;;;;10467127;28;20024;-80
2023/03/23 12:17:08;;;;;;;2.53;1.15;;;;;;;;;;10467251;28;20025;-80
2023/03/23 12:22:19;;;;;;;1.70;1.08;;;;;;;;;;10469630;28;20101;-80
2023/03/23 12:27:22;;;;;;;;;;;;;;;;;;10470531;28;20039;-79
2023/03/23 12:32:43;;;;;;;4.25;1.40;;;;;;;;;;10474055;28;19927;-79
2023/03/23 12:38:02;;;;;;;3.10;1.23;;;;;;;;;;10463513;28;20061;-79
2023/03/23 12:43:12;;;;;;;3.10;1.52;;;;;;;;;;10466996;28;20031;-79
2023/03/23 12:48:19;;;;;;;3.97;1.98;;;;;;;;;;10466410;28;20455;-79
2023/03/23 12:53:25;;;;;;;4.25;1.50;;;;;;;;;;10466391;28;20056;-80
2023/03/23 12:58:28;;;;;;;2.30;1.30;;;;;;;;;;10471281;28;20045;-79
2023/03/23 13:03:32;;;;;;;3.65;2.08;;;;;;;;;;10463012;28;20025;-80
2023/03/23 13:08:37;;;;;;;2.53;1.10;;;;;;;;;;10468787;28;20029;-79
2023/03/23 13:13:52;;;;;;;2.90;1.10;;;;;;;;;;10465759;28;20492;-80
2023/03/23 13:19:05;;;;;;;1.70;1.00;;;;;;;;;;10469165;28;20032;-81
2023/03/23 13:24:11;;;;;;;2.08;1.25;;;;;;;;;;10462220;28;20021;-79
2023/03/23 13:29:18;;;;;;;2.00;1.30;;;;;;;;;;10461143;28;20029;-79
2023/03/23 13:34:25;;;;;;;2.40;1.15;;;;;;;;;;10471920;28;20021;-79
2023/03/23 13:39:28;;;;;;;2.70;1.70;;;;;;;;;;10469628;28;20112;-80
2023/03/23 13:44:42;;;;;;;4.93;2.08;;;;;;;;;;10471268;28;20032;-80
2023/03/23 13:49:53;;;;;;;3.92;1.98;;;;;;;;;;10467620;28;20041;-81
2023/03/23 13:55:09;;;;;;;3.22;2.15;;;;;;;;;;10469645;28;20025;-80
2023/03/23 14:00:26;;;;;;;3.80;1.90;;;;;;;;;;10467053;28;20105;-80
2023/03/23 14:05:48;;;;;;;3.65;1.50;;;;;;;;;;10466454;28;20043;-80
2023/03/23 14:10:49;;;;;;;3.45;1.70;;;;;;;;;;10482309;28;20029;-78
2023/03/23 14:15:57;;;;;;;3.95;1.80;;;;;;;;;;10479997;28;20029;-79
2023/03/23 14:20:58;;;;;;;3.83;1.95;;;;;;;;;;10470253;28;20394;-80
2023/03/23 14:26:08;;;;;;;4.07;2.40;;;;;;;;;;10467869;28;20033;-82
2023/03/23 14:31:28;;;;;;;3.42;2.13;;;;;;;;;;10469658;28;20031;-80
2023/03/23 14:36:33;;;;;;;3.58;2.10;;;;;;;;;;10470228;28;20028;-81
2023/03/23 14:41:35;;;;;;;4.07;2.40;;;;;;;;;;10468524;28;20092;-81
2023/03/23 14:46:36;;;;;;;4.07;1.75;;;;;;;;;;10470690;28;20486;-81
2023/03/23 14:51:37;;;;;;;6.97;2.35;;;;;;;;;;10466527;28;20504;-80
2023/03/23 14:56:39;;;;;;;;;;;;;;;;;;10465879;28;20056;-80
2023/03/23 15:01:40;;;;;;;;;;;;;;;;;;10466448;28;19909;-81
2023/03/23 15:06:43;;;;;;;3.50;1.40;;;;;;;;;;10465586;28;19904;-81
2023/03/23 15:11:51;;;;;;;2.90;1.98;;;;;;;;;;10469265;28;20036;-81
2023/03/23 15:16:53;;;;;;;3.10;2.00;;;;;;;;;;10472988;28;20028;-81
2023/03/23 15:22:08;;;;;;;2.85;1.52;;;;;;;;;;10476204;28;20025;-81
2023/03/23 15:27:12;;;;;;;3.92;1.90;;;;;;;;;;10478790;28;20043;-81
2023/03/23 15:32:13;;;;;;;2.92;1.70;;;;;;;;;;10477403;28;20100;-81
2023/03/23 15:37:15;;;;;;;;;;;;;;;;;;10477139;28;20119;-81
2023/03/23 15:42:16;;;;;;;;;;;;;;;;;;10478457;28;19939;-83
2023/03/23 15:47:20;;;;;;;3.08;1.52;;;;;;;;;;10480946;28;19979;-80
2023/03/23 15:52:21;;;;;;;2.65;1.48;;;;;;;;;;10475777;28;20286;-81
2023/03/23 15:57:22;;;;;;;5.18;1.60;;;;;;;;;;10471599;28;20044;-81
2023/03/23 16:02:24;;;;;;;3.05;1.40;;;;;;;;;;10471025;28;20517;-80
2023/03/23 16:07:25;;;;;;;3.30;1.58;;;;;;;;;;10471169;28;20032;-81
2023/03/23 16:12:26;;;;;;;2.50;1.13;;;;;;;;;;10473091;28;20056;-82
2023/03/23 16:17:27;;;;;;;;;;;;;;;;;;10470540;28;20047;-81
2023/03/23 16:22:28;;;;;;;3.65;1.48;;;;;;;;;;10469717;28;19908;-81
2023/03/23 16:27:29;;;;;;;;;;;;;;;;;;10470427;28;20422;-81
2023/03/23 16:32:31;;;;;;;3.80;1.85;;;;;;;;;;10470119;28;19970;-81
2023/03/23 16:37:35;;;;;;;4.28;1.88;;;;;;;;;;10468554;28;20037;-80
2023/03/23 16:42:36;;;;;;;3.53;1.38;;;;;;;;;;10482520;28;20462;-81
2023/03/23 16:47:38;;;;;;;3.88;2.17;;;;;;;;;;10480594;28;20033;-81
2023/03/23 16:52:40;;;;;;;4.45;2.20;;;;;;;;;;10469769;28;20430;-80
2023/03/23 16:57:41;;;;;;;3.85;1.67;;;;;;;;;;10470707;28;20044;-81
2023/03/23 17:02:43;;;;;;;2.90;1.33;;;;;;;;;;10488409;28;20028;-80
2023/03/23 17:07:44;;;;;;;4.50;1.60;;;;;;;;;;10486923;28;20032;-81
2023/03/23 17:12:45;;;;;;;3.20;1.20;;;;;;;;;;10468064;28;20033;-81
2023/03/23 17:17:46;;;;;;;3.78;1.40;;;;;;;;;;10470209;28;20048;-83
2023/03/23 17:22:48;;;;;;;4.43;1.27;;;;;;;;;;10476580;28;20495;-80
2023/03/23 17:27:50;;;;;;;4.32;2.20;;;;;;;;;;10471859;28;20025;-82
2023/03/23 17:32:52;;;;;;;2.92;1.48;;;;;;;;;;10467968;28;20032;-82
2023/03/23 17:37:53;;;;;;;3.83;1.90;;;;;;;;;;10468403;28;20035;-83
2023/03/23 17:42:54;;;;;;;4.68;2.00;;;;;;;;;;10467543;28;20031;-82
2023/03/23 17:47:55;;;;;;;4.72;1.98;;;;;;;;;;10470679;28;20111;-82
2023/03/23 17:52:56;;;;;;;6.18;2.33;;;;;;;;;;10471218;28;20037;-83
2023/03/23 17:57:57;;;;;;;3.85;1.80;;;;;;;;;;10469594;28;20372;-82
2023/03/23 18:02:58;;;;;;;5.18;2.30;;;;;;;;;;10476193;28;20049;-83
2023/03/23 18:07:59;;;;;;;;;;;;;;;;;;10480226;28;20028;-83
2023/03/23 18:13:01;;;;;;;3.75;2.00;;;;;;;;;;10486676;28;19967;-82
2023/03/23 18:18:02;;;;;;;4.28;1.63;;;;;;;;;;10500302;28;20047;-83
2023/03/23 18:23:05;;;;;;;2.35;1.58;;;;;;;;;;10475960;28;20571;-83
2023/03/23 18:28:06;;;;;;;2.67;1.63;;;;;;;;;;10475363;28;20021;-83
2023/03/23 18:33:07;;;;;;;6.15;2.72;;;;;;;;;;10475339;28;20049;-83
2023/03/23 18:38:08;;;;;;;3.38;2.08;;;;;;;;;;10477244;28;20055;-83
2023/03/23 18:43:09;;;;;;;9.15;4.32;;;;;;;;;;10475759;28;20104;-83
2023/03/23 18:48:10;;;;;;;8.48;4.70;;;;;;;;;;10472427;28;20024;-83
2023/03/23 18:53:13;;;;;;;4.68;2.50;;;;;;;;;;10474357;28;20041;-83
2023/03/23 18:58:15;;;;;;;3.90;1.98;;;;;;;;;;10477185;28;20483;-83
2023/03/23 19:03:16;;;;;;;3.72;1.80;;;;;;;;;;10476269;28;20574;-82
2023/03/23 19:08:17;;;;;;;4.07;1.85;;;;;;;;;;10477259;28;20021;-82
2023/03/23 19:13:18;;;;;;;4.38;2.03;;;;;;;;;;10480499;28;20059;-82
2023/03/23 19:18:19;;;;;;;4.28;2.38;;;;;;;;;;10479144;28;20017;-81
2023/03/23 19:23:21;;;;;;;4.95;2.35;;;;;;;;;;10483618;28;20040;-80
2023/03/23 19:28:23;;;;;;;6.68;4.07;;;;;;;;;;10484091;28;20025;-80
2023/03/23 19:33:25;;;;;;;4.22;1.85;;;;;;;;;;10479374;28;20035;-80
2023/03/23 19:38:26;;;;;;;4.20;2.05;;;;;;;;;;10477477;28;20040;-80
2023/03/23 19:43:27;;;;;;;;;;;;;;;;;;10478776;28;20053;-80
2023/03/23 19:48:29;;;;;;;5.30;1.80;;;;;;;;;;10476692;28;19972;-80
2023/03/23 19:53:30;;;;;;;3.53;1.50;;;;;;;;;;10477702;28;20024;-80
2023/03/23 19:58:31;;;;;;;5.45;2.00;;;;;;;;;;10478811;28;20033;-80
2023/03/23 20:03:32;;;;;;;3.33;1.67;;;;;;;;;;10484988;28;20525;-81
2023/03/23 20:08:33;;;;;;;;;;;;;;;;;;10487438;28;20021;-80
2023/03/23 20:13:35;;;;;;;4.85;1.85;;;;;;;;;;10497517;28;19952;-80
